Terminal Aerodrome Forecast
Issued by NWS Duluth, MN

Home | Current Version | Previous Version | Text Only | Print | Product List | Glossary On
Versions: 1 2 3 4 5 6 7 8 9 10 11 12 13 14 15 16
343
FTUS43 KDLH 050520
TAFINL
TAF
KINL 050520Z 0506/0606 00000KT P6SM VCSH SCT050 BKN100
     FM051200 22010KT P6SM SCT060
     FM051500 21010G20KT P6SM SKC
     FM052100 26010G17KT P6SM SKC=

USA.gov is the U.S. government's official web portal to all federal, state and local government web resources and services.